Time;durP1;ratioP1;P1;durP2;ratioP2;P2;SDS_P1;SDS_P2;PMS_P1;PMS_P2;Temp;Humidity;BMP_temperature;BMP_pressure;BME280_temperature;BME280_humidity;BME280_pressure;Samples;Min_cycle;Max_cycle;Signal;HPM_P1;HPM_P2
2022/10/20 00:01:35;;;;;;;46.20;29.58;;;18.50;93.60;;;;;;6350989;22;20006;-96
2022/10/20 00:04:01;;;;;;;38.25;25.98;;;18.40;93.50;;;;;;6348187;22;19999;-96
2022/10/20 00:07:20;;;;;;;41.25;28.38;;;18.30;93.30;;;;;;6335827;22;20066;-95
2022/10/20 00:09:56;;;;;;;35.95;25.08;;;18.30;93.10;;;;;;6338763;22;19995;-96
2022/10/20 00:12:22;;;;;;;39.83;24.27;;;18.30;93.30;;;;;;6313593;22;20002;-96
2022/10/20 00:14:57;;;;;;;35.17;23.52;;;18.40;93.10;;;;;;6338721;22;20003;-96
2022/10/20 00:17:25;;;;;;;38.83;22.75;;;18.50;92.50;;;;;;6339240;22;20017;-96
2022/10/20 00:19:52;;;;;;;29.58;20.35;;;18.50;92.70;;;;;;6357852;22;20445;-96
2022/10/20 00:22:20;;;;;;;35.15;23.48;;;18.60;92.50;;;;;;6342847;22;20012;-96
2022/10/20 00:24:47;;;;;;;30.23;21.60;;;18.60;92.10;;;;;;6345085;22;19999;-96
2022/10/20 00:27:13;;;;;;;35.78;23.42;;;18.60;92.40;;;;;;6315550;22;20013;-96
2022/10/20 00:29:38;;;;;;;31.35;21.58;;;18.50;92.10;;;;;;6315701;22;19998;-96
2022/10/20 00:32:04;;;;;;;37.92;22.67;;;18.60;92.40;;;;;;6343662;22;20002;-96
2022/10/20 00:34:30;;;;;;;35.33;22.55;;;18.50;92.30;;;;;;6315889;22;20005;-96
2022/10/20 00:36:56;;;;;;;33.28;22.10;;;18.60;92.20;;;;;;6342251;22;20037;-96
2022/10/20 00:39:24;;;;;;;33.92;23.30;;;18.60;92.10;;;;;;6343564;22;20723;-95
2022/10/20 00:41:53;;;;;;;31.98;21.23;;;18.60;92.10;;;;;;6344682;22;20006;-96
2022/10/20 00:45:07;;;;;;;34.90;22.73;;;18.60;91.90;;;;;;6318103;22;20023;-95
2022/10/20 00:47:55;;;;;;;32.58;22.58;;;18.70;91.80;;;;;;6260394;22;20008;-96
2022/10/20 00:50:37;;;;;;;38.15;22.17;;;18.60;91.90;;;;;;6316244;22;20089;-96
2022/10/20 00:53:04;;;;;;;35.83;22.67;;;18.70;92.00;;;;;;6315756;22;20018;-96
2022/10/20 00:55:35;;;;;;;45.22;24.17;;;18.60;92.10;;;;;;6289887;22;20011;-96
2022/10/20 00:58:04;;;;;;;32.20;22.00;;;18.60;91.90;;;;;;6344544;22;20078;-96
2022/10/20 01:00:30;;;;;;;38.28;21.13;;;18.50;92.10;;;;;;6315899;22;20701;-96
2022/10/20 01:02:59;;;;;;;35.63;23.85;;;18.50;92.10;;;;;;6342412;22;20007;-96
2022/10/20 01:15:54;;;;;;;36.15;22.48;;;18.40;92.40;;;;;;6342432;22;20075;-96
2022/10/20 01:18:49;;;;;;;33.35;20.48;;;18.40;92.50;;;;;;6315593;22;20003;-96
2022/10/20 01:21:46;;;;;;;47.38;28.25;;;18.40;92.60;;;;;;6316098;22;20425;-95
2022/10/20 01:24:28;;;;;;;37.90;23.25;;;18.30;93.00;;;;;;6315440;22;20077;-96
2022/10/20 01:27:44;;;;;;;40.03;26.35;;;18.30;93.30;;;;;;6315774;22;20336;-94
2022/10/20 01:30:55;;;;;;;61.03;32.42;;;18.20;93.50;;;;;;6316524;22;20384;-96
2022/10/20 01:34:04;;;;;;;51.42;29.30;;;18.20;93.90;;;;;;6343218;22;20479;-96
2022/10/20 01:37:04;;;;;;;67.53;34.95;;;18.10;94.60;;;;;;6314299;22;20011;-96
2022/10/20 01:39:39;;;;;;;62.60;32.65;;;18.00;95.20;;;;;;6314999;22;19999;-96
2022/10/20 01:42:17;;;;;;;82.03;39.42;;;17.90;95.30;;;;;;6314664;22;20562;-96
2022/10/20 01:44:43;;;;;;;64.85;33.67;;;17.90;95.80;;;;;;6341973;22;20444;-96
2022/10/20 01:47:17;;;;;;;61.88;32.78;;;18.00;96.00;;;;;;6342192;22;20009;-96
2022/10/20 01:49:45;;;;;;;56.15;30.25;;;18.10;96.10;;;;;;6342428;22;20003;-96
2022/10/20 01:52:15;;;;;;;73.75;36.13;;;18.20;95.90;;;;;;6341740;22;20121;-95
2022/10/20 01:54:40;;;;;;;62.63;32.92;;;18.20;95.70;;;;;;6314246;22;20499;-96
2022/10/20 01:57:20;;;;;;;55.53;30.75;;;18.30;95.70;;;;;;6344824;22;20011;-95
2022/10/20 01:59:46;;;;;;;45.13;26.40;;;18.30;95.30;;;;;;6347620;22;20077;-96
2022/10/20 02:02:14;;;;;;;45.83;27.45;;;18.30;94.70;;;;;;6316244;22;20306;-96
2022/10/20 02:05:21;;;;;;;44.80;26.27;;;18.30;94.30;;;;;;6341596;22;20074;-95
2022/10/20 02:07:48;;;;;;;37.38;24.50;;;18.30;93.90;;;;;;6302607;22;20013;-96
2022/10/20 02:10:22;;;;;;;40.58;24.42;;;18.40;93.80;;;;;;6314126;22;20286;-96
2022/10/20 02:13:07;;;;;;;37.03;25.42;;;18.20;93.50;;;;;;6312843;22;20417;-96
2022/10/20 02:15:39;;;;;;;35.85;23.33;;;18.10;93.50;;;;;;6340706;22;20022;-95
2022/10/20 02:18:08;;;;;;;39.75;24.25;;;18.10;93.60;;;;;;6313867;22;20002;-96
2022/10/20 02:20:34;;;;;;;37.25;23.27;;;18.10;93.30;;;;;;6314147;22;20044;-96
2022/10/20 02:23:09;;;;;;;34.55;23.15;;;18.10;93.40;;;;;;6342841;22;19998;-96
2022/10/20 02:32:24;;;;;;;24.33;17.10;;;18.00;93.20;;;;;;6345273;22;20026;-96
2022/10/20 02:34:50;;;;;;;30.25;17.92;;;18.10;93.20;;;;;;6344144;22;20031;-96
2022/10/20 02:37:20;;;;;;;32.33;18.05;;;18.10;93.00;;;;;;6314833;22;20079;-96
2022/10/20 02:39:46;;;;;;;31.42;19.25;;;18.10;92.70;;;;;;6343381;22;20056;-92
2022/10/20 02:42:24;;;;;;;27.15;18.98;;;18.00;92.70;;;;;;6314404;22;20383;-94
2022/10/20 02:44:54;;;;;;;28.23;18.80;;;18.00;92.80;;;;;;6314360;22;20425;-95
2022/10/20 02:54:04;;;;;;;27.83;17.25;;;18.00;92.70;;;;;;6340664;22;20159;-95
2022/10/20 02:56:31;;;;;;;23.63;16.42;;;18.10;92.50;;;;;;6316101;22;20449;-94
2022/10/20 02:59:00;;;;;;;27.10;17.85;;;18.10;92.50;;;;;;6314930;22;20024;-94
2022/10/20 03:01:27;;;;;;;25.50;17.90;;;18.10;92.30;;;;;;6343378;22;20027;-94
2022/10/20 03:04:00;;;;;;;26.80;17.83;;;18.00;91.90;;;;;;6315389;22;20426;-94
2022/10/20 03:06:26;;;;;;;25.88;18.13;;;18.10;92.20;;;;;;6315036;22;20314;-95
2022/10/20 03:08:54;;;;;;;27.55;18.17;;;18.00;92.10;;;;;;6315931;22;20006;-93
2022/10/20 03:11:24;;;;;;;23.92;17.70;;;18.00;92.20;;;;;;6315920;22;20081;-95
2022/10/20 03:13:50;;;;;;;21.45;16.02;;;18.00;91.90;;;;;;6315053;22;20086;-95
2022/10/20 03:16:16;;;;;;;26.15;16.55;;;17.90;92.10;;;;;;6342209;22;20017;-95
2022/10/20 03:18:41;;;;;;;24.60;15.70;;;17.80;92.00;;;;;;6313965;22;19999;-94
2022/10/20 03:21:17;;;;;;;21.33;15.77;;;17.80;92.20;;;;;;6315738;22;20433;-95
2022/10/20 03:23:43;;;;;;;26.48;17.98;;;17.80;92.20;;;;;;6314353;22;20003;-96
2022/10/20 03:26:10;;;;;;;25.77;15.32;;;17.70;92.10;;;;;;6342588;22;20014;-94
2022/10/20 03:28:47;;;;;;;26.23;17.70;;;17.70;92.20;;;;;;6315983;22;20003;-95
2022/10/20 03:31:16;;;;;;;21.42;14.95;;;17.70;92.20;;;;;;6316497;22;20007;-95
2022/10/20 03:33:43;;;;;;;19.48;15.50;;;17.80;92.50;;;;;;6315331;22;19999;-94
2022/10/20 03:36:12;;;;;;;20.20;14.80;;;17.70;92.10;;;;;;6343147;22;20006;-96
2022/10/20 03:38:41;;;;;;;19.48;15.10;;;17.70;92.00;;;;;;6319000;22;20007;-94
2022/10/20 03:41:10;;;;;;;19.75;14.05;;;17.70;92.10;;;;;;6314747;22;20033;-95
2022/10/20 03:43:38;;;;;;;19.00;13.85;;;17.80;92.20;;;;;;6314656;22;20010;-95
2022/10/20 03:46:06;;;;;;;19.27;14.90;;;17.80;92.20;;;;;;6343919;22;20077;-94
2022/10/20 03:48:32;;;;;;;22.02;14.95;;;17.80;91.70;;;;;;6343546;22;20027;-94
2022/10/20 03:51:02;;;;;;;20.38;13.75;;;17.80;91.70;;;;;;6319204;22;20010;-95
2022/10/20 03:53:31;;;;;;;18.10;13.20;;;17.80;91.70;;;;;;6315058;22;20490;-95
2022/10/20 03:56:08;;;;;;;15.55;11.90;;;17.80;91.80;;;;;;6312727;22;20034;-95
2022/10/20 03:58:35;;;;;;;16.38;11.88;;;17.80;91.90;;;;;;6312912;22;20011;-95
2022/10/20 04:01:01;;;;;;;18.17;13.25;;;17.80;92.00;;;;;;6341094;22;20413;-96
2022/10/20 04:06:00;;;;;;;20.83;14.30;;;17.90;91.40;;;;;;6370133;22;20034;-81
2022/10/20 04:08:26;;;;;;;19.50;12.32;;;17.80;91.30;;;;;;6369628;22;19998;-81
2022/10/20 04:10:51;;;;;;;15.55;12.35;;;17.80;91.60;;;;;;6369820;22;20025;-81
2022/10/20 04:13:17;;;;;;;21.67;12.10;;;17.90;91.60;;;;;;6370760;22;20419;-80
2022/10/20 04:15:43;;;;;;;16.73;11.20;;;18.00;91.80;;;;;;6342107;22;20340;-81
2022/10/20 04:18:09;;;;;;;16.73;12.50;;;17.90;91.30;;;;;;6369503;22;20285;-80
2022/10/20 04:20:34;;;;;;;20.23;13.18;;;17.90;91.40;;;;;;6369773;22;20037;-80
2022/10/20 04:23:00;;;;;;;19.92;12.45;;;17.90;91.20;;;;;;6370023;22;19994;-80
2022/10/20 04:25:26;;;;;;;27.52;12.98;;;17.80;91.20;;;;;;6341960;22;20363;-81
2022/10/20 04:27:52;;;;;;;17.45;12.43;;;17.80;91.20;;;;;;6370542;22;20002;-80
2022/10/20 04:30:18;;;;;;;17.70;13.32;;;17.80;91.60;;;;;;6369270;22;19998;-83
2022/10/20 04:32:43;;;;;;;18.27;12.13;;;17.80;91.30;;;;;;6369898;22;20005;-81
2022/10/20 04:35:09;;;;;;;17.15;12.43;;;17.80;91.20;;;;;;6369213;22;20018;-80
2022/10/20 04:37:35;;;;;;;15.77;12.10;;;17.80;91.30;;;;;;6368712;22;20010;-80
2022/10/20 04:40:00;;;;;;;15.77;11.13;;;17.80;91.60;;;;;;6367833;22;20361;-80
2022/10/20 04:42:26;;;;;;;18.85;13.70;;;17.80;91.60;;;;;;6369125;22;19999;-80
2022/10/20 04:44:52;;;;;;;16.98;11.57;;;17.80;91.20;;;;;;6369177;22;20040;-82
2022/10/20 04:47:17;;;;;;;18.05;12.20;;;17.80;91.10;;;;;;6369105;22;20002;-81
2022/10/20 04:49:43;;;;;;;24.05;12.40;;;17.90;91.60;;;;;;6369146;22;20002;-81
2022/10/20 04:52:09;;;;;;;17.45;13.05;;;17.90;91.10;;;;;;6369088;22;20421;-81
2022/10/20 04:54:34;;;;;;;22.05;12.68;;;17.90;91.10;;;;;;6369214;22;20409;-80
2022/10/20 04:57:00;;;;;;;18.45;12.45;;;17.90;91.40;;;;;;6363411;22;20110;-80
2022/10/20 04:59:26;;;;;;;18.20;12.43;;;17.80;91.10;;;;;;6370169;22;20002;-80
2022/10/20 05:01:51;;;;;;;15.30;11.30;;;17.80;91.10;;;;;;6370378;22;19998;-78
2022/10/20 05:04:20;;;;;;;25.38;13.07;;;17.80;90.90;;;;;;6368908;22;20369;-78
2022/10/20 05:06:47;;;;;;;16.60;11.88;;;17.70;91.10;;;;;;6368325;22;20499;-78
2022/10/20 05:09:14;;;;;;;16.95;12.18;;;17.80;91.30;;;;;;6368821;22;20029;-79
2022/10/20 05:11:41;;;;;;;17.45;12.07;;;17.80;91.10;;;;;;6369053;22;20433;-79
2022/10/20 05:14:06;;;;;;;17.92;12.75;;;17.80;91.20;;;;;;6367984;22;20052;-79
2022/10/20 05:16:33;;;;;;;20.92;12.93;;;17.80;91.40;;;;;;6369182;22;20405;-81
2022/10/20 05:18:58;;;;;;;18.58;12.68;;;17.70;91.10;;;;;;6369428;22;19999;-81
2022/10/20 05:21:26;;;;;;;20.50;13.30;;;17.80;91.00;;;;;;6367597;22;20021;-83
2022/10/20 05:24:05;;;;;;;20.50;14.02;;;17.80;91.00;;;;;;6369081;22;20002;-79
2022/10/20 05:26:34;;;;;;;21.13;12.70;;;17.80;90.80;;;;;;6341036;22;20014;-79
2022/10/20 05:29:01;;;;;;;16.75;11.40;;;17.70;90.80;;;;;;6368997;22;20026;-81
2022/10/20 05:31:26;;;;;;;23.42;13.48;;;17.80;91.20;;;;;;6369584;22;19998;-80
2022/10/20 05:33:54;;;;;;;16.50;12.75;;;17.80;90.90;;;;;;6369840;22;20002;-80
2022/10/20 05:36:23;;;;;;;17.60;12.80;;;17.80;90.80;;;;;;6369206;22;20007;-80
2022/10/20 05:38:51;;;;;;;17.80;12.52;;;17.80;90.80;;;;;;6369794;22;19998;-80
2022/10/20 05:41:21;;;;;;;22.40;13.07;;;17.70;90.80;;;;;;6342154;22;20413;-79
2022/10/20 05:43:52;;;;;;;14.55;10.40;;;17.60;90.90;;;;;;6369833;22;20051;-80
2022/10/20 05:46:18;;;;;;;19.73;11.60;;;17.70;91.20;;;;;;6370484;22;20082;-81
2022/10/20 05:48:45;;;;;;;19.35;11.45;;;17.70;91.20;;;;;;6370151;22;20006;-78
2022/10/20 05:51:13;;;;;;;18.42;12.05;;;17.70;90.80;;;;;;6341556;22;20007;-84
2022/10/20 05:53:39;;;;;;;15.52;11.32;;;17.70;91.10;;;;;;6369397;22;20006;-83
2022/10/20 05:56:09;;;;;;;15.80;10.43;;;17.70;90.70;;;;;;6369783;22;20051;-83
2022/10/20 05:58:35;;;;;;;20.83;12.63;;;17.80;91.00;;;;;;6341668;22;20009;-83
2022/10/20 06:01:07;;;;;;;23.58;11.98;;;17.70;90.90;;;;;;6370260;22;19999;-82
2022/10/20 06:03:33;;;;;;;20.33;12.30;;;17.70;90.90;;;;;;6371150;22;20073;-83
2022/10/20 06:05:59;;;;;;;19.35;11.55;;;17.70;91.10;;;;;;6370913;22;20041;-83
2022/10/20 06:08:28;;;;;;;16.27;12.25;;;17.70;91.20;;;;;;6343357;22;20063;-83
2022/10/20 06:10:54;;;;;;;18.25;13.15;;;17.70;90.90;;;;;;6371362;22;20423;-83
2022/10/20 06:13:19;;;;;;;21.25;13.73;;;17.60;91.00;;;;;;6371776;22;20451;-83
2022/10/20 06:15:46;;;;;;;22.27;13.70;;;17.60;91.10;;;;;;6371125;22;20444;-83
2022/10/20 06:18:12;;;;;;;16.80;12.02;;;17.60;91.00;;;;;;6370375;22;20003;-83
2022/10/20 06:20:38;;;;;;;16.35;11.25;;;17.60;91.10;;;;;;6371313;22;19994;-84
2022/10/20 06:23:04;;;;;;;19.05;13.18;;;17.60;91.00;;;;;;6372206;22;20002;-83
2022/10/20 06:25:29;;;;;;;22.35;13.20;;;17.60;90.80;;;;;;6372415;22;20044;-83
2022/10/20 06:27:58;;;;;;;19.40;11.93;;;17.40;91.10;;;;;;6371331;22;20046;-77
2022/10/20 06:30:23;;;;;;;22.05;12.38;;;17.40;91.50;;;;;;6371207;22;20025;-78
2022/10/20 06:32:54;;;;;;;14.93;10.77;;;17.40;91.40;;;;;;6370537;22;19994;-78
2022/10/20 06:35:19;;;;;;;;;;;17.50;91.50;;;;;;6371031;22;20403;-84
2022/10/20 06:37:46;;;;;;;20.63;12.90;;;17.50;91.40;;;;;;6371212;22;19902;-84
2022/10/20 06:40:12;;;;;;;17.15;11.95;;;17.50;91.00;;;;;;6371523;22;20035;-83
2022/10/20 06:42:37;;;;;;;19.55;12.57;;;17.50;91.00;;;;;;6371320;22;19998;-84
2022/10/20 06:45:03;;;;;;;18.60;12.52;;;17.50;91.00;;;;;;6371955;22;20321;-84
2022/10/20 06:47:29;;;;;;;18.15;13.25;;;17.40;91.00;;;;;;6372130;22;20056;-78
2022/10/20 06:49:55;;;;;;;16.55;11.55;;;17.40;91.30;;;;;;6371458;22;20388;-78
2022/10/20 06:52:21;;;;;;;21.20;12.73;;;17.40;91.30;;;;;;6371931;22;20408;-78
2022/10/20 06:54:46;;;;;;;16.65;12.55;;;17.50;91.20;;;;;;6362551;22;20437;-78
2022/10/20 06:57:12;;;;;;;20.48;13.43;;;17.50;91.30;;;;;;6369035;22;20905;-78
2022/10/20 06:59:38;;;;;;;13.57;11.00;;;17.50;91.00;;;;;;6368037;22;20518;-78
2022/10/20 07:02:07;;;;;;;15.55;10.35;;;17.60;91.10;;;;;;6369812;22;19994;-78
2022/10/20 07:04:33;;;;;;;16.67;11.15;;;17.70;91.50;;;;;;6369042;22;20024;-82
2022/10/20 07:06:59;;;;;;;19.85;10.57;;;17.80;90.80;;;;;;6342131;22;20010;-78
2022/10/20 07:09:25;;;;;;;16.77;11.25;;;17.90;90.70;;;;;;6370662;22;19998;-77
2022/10/20 07:11:52;;;;;;;20.48;12.43;;;18.00;90.70;;;;;;6341880;22;20006;-78
2022/10/20 07:14:18;;;;;;;16.92;11.90;;;18.20;90.30;;;;;;6369955;22;20010;-78
2022/10/20 07:16:44;;;;;;;17.65;12.13;;;18.20;90.20;;;;;;6369793;22;20007;-78
2022/10/20 07:19:10;;;;;;;19.02;11.77;;;18.20;90.30;;;;;;6341674;22;20428;-79
2022/10/20 07:21:35;;;;;;;16.15;11.23;;;18.30;89.70;;;;;;6369409;22;19998;-83
2022/10/20 07:24:02;;;;;;;21.60;13.15;;;18.30;90.10;;;;;;6369103;22;20360;-82
2022/10/20 07:26:31;;;;;;;18.08;11.75;;;18.30;89.30;;;;;;6368355;22;20006;-82
2022/10/20 07:28:58;;;;;;;18.48;11.75;;;18.30;90.00;;;;;;6369146;22;20463;-82
2022/10/20 07:31:30;;;;;;;17.42;10.60;;;18.30;90.10;;;;;;6369609;22;20005;-82
2022/10/20 07:33:58;;;;;;;18.88;11.90;;;18.40;90.00;;;;;;6342989;22;20009;-82
2022/10/20 07:36:29;;;;;;;17.73;11.38;;;18.50;90.20;;;;;;6369701;22;20037;-82
2022/10/20 07:38:57;;;;;;;18.92;12.15;;;18.50;89.90;;;;;;6341368;22;20004;-82
2022/10/20 07:41:27;;;;;;;18.38;11.13;;;18.50;90.00;;;;;;6369945;22;20087;-83
2022/10/20 07:43:56;;;;;;;29.40;11.77;;;18.60;89.80;;;;;;6342204;22;20003;-83
2022/10/20 07:46:22;;;;;;;16.67;10.65;;;18.60;90.00;;;;;;6341536;22;20002;-79
2022/10/20 07:48:48;;;;;;;15.88;10.93;;;18.80;89.80;;;;;;6370215;22;20103;-79
2022/10/20 07:51:29;;;;;;;18.92;11.63;;;18.90;89.20;;;;;;6369717;22;20029;-78
2022/10/20 07:53:59;;;;;;;14.73;9.95;;;19.00;88.90;;;;;;6369603;22;20404;-79
2022/10/20 07:56:29;;;;;;;16.75;11.48;;;19.10;89.00;;;;;;6369511;22;20320;-83
2022/10/20 07:58:56;;;;;;;14.57;10.25;;;19.20;88.50;;;;;;6341078;22;20002;-84
2022/10/20 08:01:22;;;;;;;17.27;11.13;;;19.40;88.20;;;;;;6342140;22;20006;-79
2022/10/20 08:03:48;;;;;;;16.60;10.93;;;19.50;87.90;;;;;;6366703;22;20029;-80
2022/10/20 08:06:14;;;;;;;17.70;10.15;;;19.60;88.20;;;;;;6310753;22;20021;-80
2022/10/20 08:08:40;;;;;;;12.80;10.10;;;19.70;88.10;;;;;;6310414;22;20082;-83
2022/10/20 08:11:07;;;;;;;13.13;9.43;;;19.90;88.10;;;;;;6309920;22;20052;-79
2022/10/20 08:13:33;;;;;;;15.60;10.70;;;20.00;88.30;;;;;;6337551;22;20010;-83
2022/10/20 08:15:59;;;;;;;14.35;9.98;;;20.00;87.20;;;;;;6337965;22;19999;-79
2022/10/20 08:18:29;;;;;;;11.93;9.43;;;20.10;87.70;;;;;;6306295;22;20082;-84
2022/10/20 08:21:07;;;;;;;14.10;9.30;;;20.20;87.30;;;;;;6309969;22;19998;-85
2022/10/20 08:23:36;;;;;;;13.40;8.43;;;20.30;87.30;;;;;;6338017;22;20002;-84
2022/10/20 08:26:02;;;;;;;15.00;10.13;;;20.40;87.00;;;;;;6338185;22;19999;-84
2022/10/20 08:28:27;;;;;;;17.58;10.27;;;20.50;86.30;;;;;;6338291;22;20002;-83
2022/10/20 08:30:53;;;;;;;16.00;8.95;;;20.60;85.90;;;;;;6338998;22;20024;-83
2022/10/20 08:33:19;;;;;;;19.25;11.25;;;20.60;86.40;;;;;;6337485;22;20425;-83
2022/10/20 08:35:44;;;;;;;14.88;10.73;;;20.70;86.20;;;;;;6338663;22;20002;-83
2022/10/20 08:38:10;;;;;;;12.32;9.18;;;20.80;86.60;;;;;;6338989;22;20101;-77
2022/10/20 08:40:40;;;;;;;14.82;10.18;;;20.80;85.60;;;;;;6338657;22;20010;-78
2022/10/20 08:43:10;;;;;;;10.45;8.20;;;20.90;85.50;;;;;;6338674;22;20006;-78
2022/10/20 08:45:38;;;;;;;;;;;21.10;85.70;;;;;;6338875;22;19999;-78
2022/10/20 08:48:04;;;;;;;13.32;8.70;;;21.20;84.80;;;;;;6338515;22;19898;-78
2022/10/20 08:50:31;;;;;;;20.25;9.30;;;21.40;85.10;;;;;;6337740;22;20056;-78
2022/10/20 08:52:59;;;;;;;20.80;9.43;;;21.60;84.80;;;;;;6338548;22;19999;-78
2022/10/20 08:55:29;;;;;;;18.67;9.90;;;21.70;84.50;;;;;;6336802;22;20003;-78
2022/10/20 08:58:06;;;;;;;13.60;8.70;;;21.80;84.60;;;;;;6335361;22;20003;-82
2022/10/20 09:00:36;;;;;;;13.95;9.10;;;21.90;83.50;;;;;;6310104;22;19999;-79
2022/10/20 09:03:19;;;;;;;18.85;8.30;;;22.00;83.50;;;;;;6310555;22;19999;-82
2022/10/20 09:05:55;;;;;;;21.40;11.43;;;22.20;83.20;;;;;;6364491;22;20034;-83
2022/10/20 09:08:25;;;;;;;16.88;11.07;;;22.20;82.30;;;;;;6369196;22;20351;-83
2022/10/20 09:10:53;;;;;;;13.30;8.88;;;22.20;82.70;;;;;;6369841;22;20010;-83
2022/10/20 09:13:25;;;;;;;13.35;9.00;;;22.40;83.20;;;;;;6370438;22;20006;-85
2022/10/20 09:16:20;;;;;;;12.85;9.07;;;22.50;83.10;;;;;;6369947;22;20021;-85
2022/10/20 09:18:52;;;;;;;14.52;9.20;;;22.70;82.70;;;;;;6364360;22;20006;-85
2022/10/20 09:21:21;;;;;;;14.40;8.40;;;22.80;82.00;;;;;;6370165;22;20005;-85
2022/10/20 09:23:53;;;;;;;15.48;10.13;;;23.00;82.10;;;;;;6370002;22;19999;-85
2022/10/20 09:26:31;;;;;;;13.18;9.27;;;23.10;81.80;;;;;;6369152;22;20013;-84
2022/10/20 09:29:19;;;;;;;13.35;8.93;;;23.20;81.40;;;;;;6369516;22;19998;-85
2022/10/20 09:31:45;;;;;;;11.50;8.65;;;23.30;81.00;;;;;;6371470;22;20006;-79
2022/10/20 09:34:34;;;;;;;12.60;9.32;;;23.50;80.80;;;;;;6369611;22;20009;-79
2022/10/20 09:37:07;;;;;;;14.05;9.13;;;23.60;79.90;;;;;;6369678;22;20370;-84
2022/10/20 09:39:53;;;;;;;10.60;8.75;;;23.70;79.90;;;;;;6370361;22;19994;-84
2022/10/20 09:42:28;;;;;;;17.02;11.00;;;23.80;79.20;;;;;;6370164;22;19994;-83
2022/10/20 09:44:57;;;;;;;19.40;11.35;;;23.80;78.80;;;;;;6371339;22;20004;-82
2022/10/20 09:47:25;;;;;;;19.77;12.03;;;23.80;78.50;;;;;;6369492;22;20034;-78
2022/10/20 09:50:04;;;;;;;10.43;8.40;;;23.80;78.50;;;;;;6341902;22;20521;-79
2022/10/20 09:52:36;;;;;;;14.63;8.30;;;23.90;79.00;;;;;;6369527;22;20002;-78
2022/10/20 09:55:07;;;;;;;15.75;9.30;;;24.10;79.00;;;;;;6342438;22;20071;-83
2022/10/20 09:57:33;;;;;;;19.77;12.27;;;24.30;77.80;;;;;;6368919;22;20006;-83
2022/10/20 10:00:00;;;;;;;14.20;11.25;;;24.30;76.80;;;;;;6369657;22;20020;-83
2022/10/20 10:02:30;;;;;;;18.55;11.60;;;24.30;77.30;;;;;;6369531;22;19999;-78
2022/10/20 10:05:18;;;;;;;15.52;10.93;;;24.20;76.80;;;;;;6368947;22;20317;-78
2022/10/20 10:07:55;;;;;;;16.00;11.25;;;24.20;76.70;;;;;;6369313;22;20005;-78
2022/10/20 10:10:25;;;;;;;15.65;8.35;;;24.30;76.90;;;;;;6368733;22;20005;-78
2022/10/20 10:12:53;;;;;;;17.95;12.05;;;24.40;77.70;;;;;;6368567;22;20081;-78
2022/10/20 10:15:29;;;;;;;12.77;9.68;;;24.50;76.10;;;;;;6369181;22;20029;-83
2022/10/20 10:17:56;;;;;;;12.02;8.32;;;24.50;75.80;;;;;;6341755;22;20012;-83
2022/10/20 10:20:28;;;;;;;10.77;7.78;;;24.70;76.90;;;;;;6341848;22;20002;-83
2022/10/20 10:23:23;;;;;;;13.35;8.73;;;24.80;76.30;;;;;;6375383;22;20001;-83
2022/10/20 10:25:50;;;;;;;15.15;10.85;;;25.00;76.10;;;;;;6372726;22;20369;-82
2022/10/20 10:28:32;;;;;;;11.63;9.30;;;25.00;72.70;;;;;;6370727;22;20413;-83
2022/10/20 10:31:24;;;;;;;12.35;8.55;;;24.90;73.30;;;;;;6370393;22;20014;-82
2022/10/20 10:34:01;;;;;;;14.10;9.82;;;25.00;73.30;;;;;;6369029;22;20005;-83
2022/10/20 10:36:34;;;;;;;18.38;9.60;;;24.90;72.80;;;;;;6379124;22;20021;-83
2022/10/20 10:39:02;;;;;;;13.38;9.13;;;25.00;73.20;;;;;;6344651;22;19998;-82
2022/10/20 10:42:14;;;;;;;12.50;7.40;;;25.00;74.40;;;;;;6371322;22;20014;-83
2022/10/20 10:44:53;;;;;;;14.57;9.50;;;25.30;73.90;;;;;;6343146;22;20009;-84
2022/10/20 10:47:43;;;;;;;11.02;7.82;;;25.50;73.10;;;;;;6370999;22;20006;-83
2022/10/20 10:50:27;;;;;;;;;;;25.70;73.30;;;;;;6372415;22;20420;-83
2022/10/20 10:53:11;;;;;;;10.73;7.82;;;25.80;72.20;;;;;;6376400;22;20307;-78
2022/10/20 10:55:46;;;;;;;11.05;7.50;;;26.10;72.20;;;;;;6371973;22;20026;-78
2022/10/20 10:58:46;;;;;;;15.57;9.88;;;26.10;71.80;;;;;;6371108;22;20309;-78
2022/10/20 11:01:33;;;;;;;18.48;11.95;;;26.10;70.30;;;;;;6370887;22;19998;-78
2022/10/20 11:04:17;;;;;;;15.73;11.52;;;26.00;69.30;;;;;;6365427;22;20042;-78
2022/10/20 11:09:46;;;;;;;12.10;8.55;;;25.30;71.50;;;;;;6334159;22;20058;-79
2022/10/20 11:12:27;;;;;;;14.68;9.82;;;25.30;71.80;;;;;;6335656;22;19999;-78
2022/10/20 11:15:28;;;;;;;15.10;7.95;;;25.30;71.50;;;;;;6334336;22;20064;-78
2022/10/20 11:17:57;;;;;;;14.98;9.95;;;25.40;72.50;;;;;;6329554;22;20050;-78
2022/10/20 11:20:37;;;;;;;19.50;9.55;;;25.40;71.60;;;;;;6337272;22;19998;-78
2022/10/20 11:23:06;;;;;;;11.85;7.55;;;25.70;72.40;;;;;;6337545;22;20007;-78
2022/10/20 11:26:01;;;;;;;13.88;7.90;;;26.10;71.70;;;;;;6335494;22;20443;-78
2022/10/20 11:28:35;;;;;;;17.88;10.98;;;26.40;70.40;;;;;;6333424;22;19999;-77
2022/10/20 11:31:02;;;;;;;18.70;9.70;;;26.40;69.30;;;;;;6330643;22;20010;-83
2022/10/20 11:33:42;;;;;;;13.48;8.15;;;26.40;69.40;;;;;;6337170;22;20072;-85
2022/10/20 11:36:18;;;;;;;;;;;26.50;69.70;;;;;;6335678;22;20052;-78
2022/10/20 11:38:50;;;;;;;12.23;7.25;;;26.50;69.90;;;;;;6337491;22;19981;-78
2022/10/20 11:41:22;;;;;;;15.90;7.55;;;26.70;69.40;;;;;;6334915;22;20305;-77
2022/10/20 11:44:13;;;;;;;18.00;9.25;;;26.90;69.10;;;;;;6337013;22;19995;-77
2022/10/20 11:46:51;;;;;;;12.88;7.72;;;27.10;68.40;;;;;;6337537;22;20003;-77
2022/10/20 11:49:18;;;;;;;10.40;6.65;;;27.50;67.40;;;;;;6337027;22;19999;-85
2022/10/20 11:52:17;;;;;;;11.10;5.90;;;27.70;66.90;;;;;;6335560;22;20006;-85
2022/10/20 11:54:51;;;;;;;10.80;6.73;;;28.20;66.30;;;;;;6336478;22;20340;-85
2022/10/20 11:57:41;;;;;;;10.52;6.28;;;28.50;65.30;;;;;;6336941;22;20010;-84
2022/10/20 12:00:38;;;;;;;10.95;6.65;;;28.70;63.70;;;;;;6337867;22;19999;-85
2022/10/20 12:03:27;;;;;;;15.32;6.55;;;28.70;63.80;;;;;;6338769;22;19999;-84
2022/10/20 12:06:10;;;;;;;9.43;6.93;;;28.80;63.50;;;;;;6338349;22;20408;-84
2022/10/20 12:09:04;;;;;;;13.23;7.43;;;29.00;63.30;;;;;;6337878;22;20018;-85
2022/10/20 12:12:02;;;;;;;9.55;6.55;;;29.10;61.90;;;;;;6337222;22;20072;-88
2022/10/20 12:14:36;;;;;;;9.95;6.07;;;29.10;62.70;;;;;;6316814;22;20003;-81
2022/10/20 12:17:41;;;;;;;9.98;6.22;;;29.00;62.70;;;;;;6337912;22;20005;-89
2022/10/20 12:20:21;;;;;;;11.00;6.65;;;28.80;63.20;;;;;;6304498;22;20011;-87
2022/10/20 12:22:52;;;;;;;9.13;5.88;;;28.70;63.30;;;;;;6336090;22;20003;-87
2022/10/20 12:25:24;;;;;;;10.10;6.65;;;28.50;63.90;;;;;;6338193;22;20059;-87
2022/10/20 12:28:21;;;;;;;11.68;6.75;;;28.60;63.90;;;;;;6338017;22;19998;-87
2022/10/20 12:31:04;;;;;;;6.97;5.82;;;28.60;63.40;;;;;;6337621;22;20026;-87
2022/10/20 12:33:48;;;;;;;7.03;6.20;;;28.60;63.20;;;;;;6337997;22;19999;-80
2022/10/20 12:36:16;;;;;;;9.15;6.45;;;28.60;63.00;;;;;;6336710;22;20074;-80
2022/10/20 12:38:50;;;;;;;9.98;6.25;;;28.40;63.40;;;;;;6336873;22;19998;-86
2022/10/20 12:41:53;;;;;;;8.43;7.22;;;28.40;63.10;;;;;;6337665;22;20356;-86
2022/10/20 12:44:20;;;;;;;13.70;7.45;;;28.10;64.20;;;;;;6335787;22;20079;-85
2022/10/20 12:47:04;;;;;;;9.68;6.97;;;27.70;64.90;;;;;;6336229;22;20003;-80
2022/10/20 12:49:52;;;;;;;9.48;6.63;;;27.60;65.30;;;;;;6336990;22;20026;-80
2022/10/20 12:52:22;;;;;;;12.93;7.47;;;27.70;65.30;;;;;;6332856;22;20026;-80
2022/10/20 12:54:57;;;;;;;8.07;6.07;;;27.60;64.60;;;;;;6335280;22;20007;-80
2022/10/20 12:57:30;;;;;;;10.65;6.72;;;27.40;64.70;;;;;;6337019;22;20007;-80
2022/10/20 12:59:56;;;;;;;10.60;6.80;;;27.10;66.20;;;;;;6335352;22;20030;-79
2022/10/20 13:02:22;;;;;;;10.48;6.53;;;26.80;66.40;;;;;;6337012;22;19999;-80
2022/10/20 13:05:22;;;;;;;8.52;7.03;;;26.60;67.60;;;;;;6335368;22;20005;-79
2022/10/20 13:07:47;;;;;;;12.05;6.40;;;26.40;67.20;;;;;;6337713;22;20042;-79
2022/10/20 13:10:31;;;;;;;9.63;6.20;;;26.20;67.80;;;;;;6335507;22;20006;-79
2022/10/20 13:13:03;;;;;;;9.80;6.30;;;26.10;68.80;;;;;;6329904;22;20431;-79
2022/10/20 13:15:34;;;;;;;8.90;5.82;;;25.90;68.30;;;;;;6333077;22;20585;-80
2022/10/20 13:18:02;;;;;;;9.77;6.15;;;25.80;69.70;;;;;;6333741;22;19999;-79
2022/10/20 13:21:05;;;;;;;11.80;6.45;;;25.80;69.80;;;;;;6333517;22;20359;-78
2022/10/20 13:23:37;;;;;;;12.27;6.68;;;25.70;70.00;;;;;;6328901;22;19995;-78
2022/10/20 13:26:28;;;;;;;8.20;5.15;;;25.60;71.00;;;;;;6335080;22;20002;-78
2022/10/20 13:28:57;;;;;;;7.55;5.57;;;25.40;71.30;;;;;;6337278;22;20077;-77
2022/10/20 13:31:36;;;;;;;8.60;6.22;;;25.40;71.40;;;;;;6336610;22;19999;-78